Time;durP1;ratioP1;P1;durP2;ratioP2;P2;SDS_P1;SDS_P2;PMS_P1;PMS_P2;Temp;Humidity;BMP_temperature;BMP_pressure;BME280_temperature;BME280_humidity;BME280_pressure;Samples;Min_cycle;Max_cycle;Signal;HPM_P1;HPM_P2
2022/07/10 00:01:56;;;;;;;7.10;5.70;;;19.00;99.90;;;;;;5024943;28;20199;-70
2022/07/10 00:04:22;;;;;;;5.97;5.57;;;19.10;99.90;;;;;;5025079;28;20497;-69
2022/07/10 00:06:47;;;;;;;5.87;5.37;;;19.30;99.90;;;;;;5025281;28;20213;-70
2022/07/10 00:09:13;;;;;;;5.73;5.33;;;19.30;99.90;;;;;;5025122;28;20674;-70
2022/07/10 00:11:40;;;;;;;7.53;6.93;;;19.40;99.90;;;;;;5024895;28;20187;-70
2022/07/10 00:14:05;;;;;;;7.27;6.60;;;19.50;99.90;;;;;;5025024;28;20448;-70
2022/07/10 00:16:31;;;;;;;6.83;5.40;;;19.60;99.90;;;;;;5024491;28;20572;-69
2022/07/10 00:18:56;;;;;;;5.80;5.33;;;19.60;99.90;;;;;;5024391;28;20175;-70
2022/07/10 00:21:22;;;;;;;5.50;5.10;;;19.60;99.90;;;;;;5024957;28;20569;-69
2022/07/10 00:23:48;;;;;;;5.33;4.90;;;19.50;99.90;;;;;;5025238;28;20171;-69
2022/07/10 00:26:14;;;;;;;5.40;5.00;;;19.60;99.90;;;;;;5025061;28;20186;-72
2022/07/10 00:28:39;;;;;;;5.60;5.20;;;19.60;99.90;;;;;;5024985;28;20236;-71
2022/07/10 00:31:05;;;;;;;4.97;4.57;;;19.70;99.90;;;;;;5024599;28;20576;-71
2022/07/10 00:33:32;;;;;;;5.37;4.90;;;19.80;99.90;;;;;;5024757;28;20554;-71
2022/07/10 00:36:00;;;;;;;5.57;5.17;;;19.90;99.90;;;;;;5024738;28;20194;-71
2022/07/10 00:38:26;;;;;;;5.73;5.33;;;19.90;99.90;;;;;;5025128;28;20508;-72
2022/07/10 00:41:00;;;;;;;4.97;4.57;;;19.70;99.90;;;;;;5024469;28;20958;-71
2022/07/10 00:43:26;;;;;;;5.70;5.20;;;19.70;99.90;;;;;;5024659;28;20198;-71
2022/07/10 00:45:51;;;;;;;4.97;4.57;;;19.60;99.90;;;;;;5006204;28;20422;-71
2022/07/10 00:48:17;;;;;;;5.87;5.47;;;19.60;99.90;;;;;;5024414;28;20213;-72
2022/07/10 00:50:44;;;;;;;5.17;4.77;;;19.60;99.90;;;;;;5024144;28;20180;-70
2022/07/10 00:53:10;;;;;;;6.00;5.50;;;19.60;99.90;;;;;;5024404;28;20278;-71
2022/07/10 00:55:37;;;;;;;4.57;4.27;;;19.60;99.90;;;;;;5023103;28;20832;-70
2022/07/10 00:58:06;;;;;;;4.83;4.33;;;19.60;99.90;;;;;;5024297;28;21077;-70
2022/07/10 01:00:33;;;;;;;6.10;5.60;;;19.70;99.90;;;;;;5023885;28;21493;-69
2022/07/10 01:02:58;;;;;;;6.20;5.30;;;19.70;99.90;;;;;;5024066;28;20453;-70
2022/07/10 01:05:24;;;;;;;4.77;4.37;;;19.60;99.90;;;;;;5023757;28;20422;-69
2022/07/10 01:07:50;;;;;;;7.50;5.77;;;19.40;99.90;;;;;;5023956;28;20195;-69
2022/07/10 01:10:15;;;;;;;4.50;4.10;;;19.30;99.90;;;;;;5023719;28;20190;-69
2022/07/10 01:12:41;;;;;;;5.47;5.07;;;19.40;99.90;;;;;;5024407;28;20181;-70
2022/07/10 01:15:08;;;;;;;5.63;5.23;;;19.20;99.90;;;;;;5023779;28;20175;-69
2022/07/10 01:17:34;;;;;;;5.43;4.93;;;19.10;99.90;;;;;;5023813;28;20426;-69
2022/07/10 01:20:08;;;;;;;5.90;5.00;;;18.90;99.90;;;;;;5023802;28;20468;-70
2022/07/10 01:22:34;;;;;;;5.53;5.13;;;18.80;99.90;;;;;;5024013;28;20484;-69
2022/07/10 01:24:59;;;;;;;6.27;5.60;;;18.70;99.90;;;;;;5023799;28;20488;-71
2022/07/10 01:27:25;;;;;;;4.93;4.53;;;18.70;99.90;;;;;;5023905;28;20872;-69
2022/07/10 01:29:52;;;;;;;5.23;4.90;;;18.70;99.90;;;;;;5023769;28;20232;-70
2022/07/10 01:32:18;;;;;;;7.37;5.60;;;18.50;99.90;;;;;;5023265;28;20226;-68
2022/07/10 01:34:45;;;;;;;6.30;5.80;;;18.40;99.90;;;;;;5023951;28;20418;-71
2022/07/10 01:37:10;;;;;;;5.10;4.70;;;18.50;99.90;;;;;;5023870;28;20207;-72
2022/07/10 01:39:36;;;;;;;5.80;5.30;;;18.40;99.90;;;;;;5023755;28;20504;-70
2022/07/10 01:42:02;;;;;;;7.70;4.97;;;18.50;99.90;;;;;;5023153;28;20195;-71
2022/07/10 01:44:27;;;;;;;6.00;5.47;;;18.40;99.90;;;;;;5023784;28;20182;-71
2022/07/10 01:46:53;;;;;;;5.40;5.00;;;18.30;99.90;;;;;;5023411;28;20205;-71
2022/07/10 01:49:18;;;;;;;5.57;5.03;;;18.40;99.90;;;;;;5023619;28;20640;-71
2022/07/10 01:51:44;;;;;;;5.47;4.93;;;18.20;99.90;;;;;;5023783;28;20190;-71
2022/07/10 01:54:10;;;;;;;4.60;4.30;;;18.00;99.90;;;;;;5023632;28;20592;-70
2022/07/10 01:56:35;;;;;;;7.60;5.17;;;18.10;99.90;;;;;;5023250;28;20219;-70
2022/07/10 01:59:03;;;;;;;5.37;4.87;;;18.20;99.90;;;;;;5023228;28;20640;-72
2022/07/10 02:01:29;;;;;;;8.50;5.10;;;18.20;99.90;;;;;;5023264;28;20659;-71
2022/07/10 02:06:39;;;;;;;7.00;6.50;;;18.20;99.90;;;;;;5023484;28;20992;-70
2022/07/10 02:09:04;;;;;;;6.60;6.10;;;17.70;99.90;;;;;;5023406;28;20414;-69
2022/07/10 02:11:30;;;;;;;7.63;6.93;;;17.50;99.90;;;;;;5023029;28;20248;-71
2022/07/10 02:13:55;;;;;;;7.00;6.40;;;17.50;99.90;;;;;;5023332;28;20210;-70
2022/07/10 02:16:21;;;;;;;8.00;7.30;;;17.60;99.90;;;;;;5022872;28;20195;-70
2022/07/10 02:18:47;;;;;;;6.80;6.30;;;17.80;99.90;;;;;;5023782;28;20282;-70
2022/07/10 02:21:13;;;;;;;9.73;8.93;;;17.70;99.90;;;;;;5023021;28;20179;-71
2022/07/10 02:23:40;;;;;;;6.67;6.13;;;17.70;99.90;;;;;;5023675;28;20432;-70
2022/07/10 02:26:06;;;;;;;7.97;7.27;;;17.70;99.90;;;;;;5023069;28;20179;-73
2022/07/10 02:28:32;;;;;;;8.10;7.50;;;17.90;99.90;;;;;;5023541;28;20463;-70
2022/07/10 02:30:58;;;;;;;11.63;10.63;;;18.00;99.90;;;;;;5023001;28;20449;-72
2022/07/10 02:33:25;;;;;;;12.67;11.57;;;18.00;99.90;;;;;;5022569;28;20179;-71
2022/07/10 02:35:50;;;;;;;13.37;12.13;;;18.00;99.90;;;;;;5023372;28;20421;-70
2022/07/10 02:38:16;;;;;;;12.33;11.43;;;17.80;99.90;;;;;;5023093;28;20910;-70
2022/07/10 02:40:42;;;;;;;13.00;11.90;;;18.00;99.90;;;;;;5023313;28;20626;-69
2022/07/10 02:43:07;;;;;;;13.83;12.53;;;18.00;99.90;;;;;;5024802;28;20201;-69
2022/07/10 02:45:33;;;;;;;13.90;12.70;;;18.00;99.90;;;;;;5027281;28;20226;-71
2022/07/10 02:47:59;;;;;;;14.20;12.97;;;18.10;99.90;;;;;;5026576;28;20226;-72
2022/07/10 02:50:24;;;;;;;14.93;13.60;;;18.10;99.90;;;;;;5027025;28;20190;-73
2022/07/10 02:52:50;;;;;;;14.57;13.27;;;18.10;99.90;;;;;;5009178;28;20190;-70
2022/07/10 02:55:16;;;;;;;15.17;13.87;;;18.10;99.90;;;;;;5026552;28;21269;-71
2022/07/10 02:57:41;;;;;;;14.43;13.03;;;18.00;99.90;;;;;;5027396;28;20222;-71
2022/07/10 03:00:07;;;;;;;14.10;12.90;;;18.00;99.90;;;;;;5027410;28;20183;-70
2022/07/10 03:02:33;;;;;;;13.97;12.57;;;18.00;99.90;;;;;;5026603;28;20233;-70
2022/07/10 03:04:59;;;;;;;14.40;13.10;;;18.00;99.90;;;;;;5027058;28;20446;-71
2022/07/10 03:07:24;;;;;;;13.97;12.80;;;17.90;99.90;;;;;;5026829;28;20221;-71
2022/07/10 03:09:50;;;;;;;14.47;13.27;;;18.00;99.90;;;;;;5026619;28;20198;-70
2022/07/10 03:12:15;;;;;;;13.20;12.03;;;18.00;99.90;;;;;;5026587;28;20186;-70
2022/07/10 03:14:41;;;;;;;13.63;12.50;;;18.00;99.90;;;;;;5026391;28;20217;-71
2022/07/10 03:17:07;;;;;;;13.77;12.57;;;18.20;99.90;;;;;;5026501;28;20207;-71
2022/07/10 03:19:33;;;;;;;12.87;11.77;;;18.10;99.90;;;;;;5026204;28;20781;-70
2022/07/10 03:21:59;;;;;;;14.20;12.90;;;18.10;99.90;;;;;;5025993;28;20245;-70
2022/07/10 03:24:24;;;;;;;13.07;11.90;;;18.00;99.90;;;;;;5025942;28;20445;-69
2022/07/10 03:26:50;;;;;;;13.47;12.17;;;18.10;99.90;;;;;;5025621;28;20268;-70
2022/07/10 03:29:15;;;;;;;12.57;11.47;;;18.20;99.90;;;;;;5025835;28;20179;-70
2022/07/10 03:31:41;;;;;;;12.20;11.20;;;18.20;99.90;;;;;;5025944;28;20229;-70
2022/07/10 03:34:08;;;;;;;11.77;10.87;;;18.00;99.90;;;;;;5025930;28;20572;-69
2022/07/10 03:36:33;;;;;;;13.20;11.87;;;17.80;99.90;;;;;;5025614;28;20203;-70
2022/07/10 03:38:59;;;;;;;12.87;10.73;;;17.80;99.90;;;;;;5025801;28;20417;-70
2022/07/10 03:41:25;;;;;;;13.07;11.97;;;17.90;99.90;;;;;;5025428;28;20180;-70
2022/07/10 03:43:50;;;;;;;12.73;11.70;;;17.90;99.90;;;;;;5007886;28;20176;-71
2022/07/10 03:46:16;;;;;;;12.67;11.57;;;17.90;99.90;;;;;;5025159;28;21484;-69
2022/07/10 03:48:41;;;;;;;11.30;10.37;;;18.10;99.90;;;;;;5025613;28;20591;-70
2022/07/10 03:51:07;;;;;;;11.50;10.30;;;18.00;99.90;;;;;;5025495;28;20289;-71
2022/07/10 03:53:32;;;;;;;9.60;8.70;;;18.00;99.90;;;;;;5025465;28;20187;-69
2022/07/10 03:56:00;;;;;;;13.97;10.73;;;18.20;99.90;;;;;;5025257;28;20233;-68
2022/07/10 03:58:26;;;;;;;13.33;12.07;;;18.30;99.90;;;;;;5025392;28;20194;-70
2022/07/10 04:00:51;;;;;;;11.50;10.40;;;18.10;99.90;;;;;;5025459;28;20418;-70
2022/07/10 04:03:17;;;;;;;13.87;11.37;;;17.90;99.90;;;;;;5024920;28;20814;-69
2022/07/10 04:05:43;;;;;;;11.00;10.10;;;17.80;99.90;;;;;;5025027;28;20636;-69
2022/07/10 04:08:09;;;;;;;13.43;12.33;;;17.80;99.90;;;;;;5025025;28;20428;-71
2022/07/10 04:10:35;;;;;;;12.33;11.17;;;17.80;99.90;;;;;;5024921;28;20186;-70
2022/07/10 04:13:01;;;;;;;11.43;10.33;;;17.70;99.90;;;;;;5025348;28;20422;-69
2022/07/10 04:15:27;;;;;;;13.57;12.37;;;17.80;99.90;;;;;;5007192;28;20433;-73
2022/07/10 04:17:52;;;;;;;14.33;13.03;;;18.00;99.90;;;;;;5024956;28;20211;-69
2022/07/10 04:20:18;;;;;;;13.00;11.90;;;17.80;99.90;;;;;;5025300;28;20201;-70
2022/07/10 04:22:44;;;;;;;14.93;13.43;;;17.80;99.90;;;;;;5025071;28;20206;-69
2022/07/10 04:25:11;;;;;;;13.40;12.20;;;17.80;99.90;;;;;;5006738;28;20467;-68
2022/07/10 04:27:36;;;;;;;12.00;10.90;;;17.90;99.90;;;;;;5024897;28;20226;-69
2022/07/10 04:30:03;;;;;;;12.40;11.17;;;17.70;99.90;;;;;;5024824;28;20418;-69
2022/07/10 04:32:29;;;;;;;13.00;11.80;;;17.70;99.90;;;;;;5024914;28;20191;-68
2022/07/10 04:34:55;;;;;;;11.87;10.37;;;17.70;99.90;;;;;;5024900;28;20422;-72
2022/07/10 04:37:21;;;;;;;12.30;11.13;;;17.60;99.90;;;;;;5023939;28;20278;-70
2022/07/10 04:40:06;;;;;;;10.93;9.83;;;17.50;99.90;;;;;;5024967;28;20829;-70
2022/07/10 04:42:32;;;;;;;10.17;9.07;;;17.60;99.90;;;;;;5024371;28;20694;-72
2022/07/10 04:44:58;;;;;;;10.57;9.63;;;17.50;99.90;;;;;;5024614;28;20414;-70
2022/07/10 04:47:23;;;;;;;13.33;9.37;;;17.40;99.90;;;;;;5023470;28;20203;-73
2022/07/10 04:49:49;;;;;;;10.30;9.47;;;17.40;99.90;;;;;;5024938;28;20175;-71
2022/07/10 04:52:15;;;;;;;9.20;8.40;;;17.40;99.90;;;;;;5025165;28;20692;-72
2022/07/10 04:54:40;;;;;;;11.50;9.80;;;17.40;99.90;;;;;;5024435;28;20198;-71
2022/07/10 04:57:06;;;;;;;10.70;9.67;;;17.50;99.90;;;;;;5024045;28;21056;-70
2022/07/10 04:59:32;;;;;;;10.60;9.60;;;17.60;99.90;;;;;;5024517;28;20182;-72
2022/07/10 05:01:57;;;;;;;10.83;8.13;;;17.80;99.90;;;;;;5024071;28;20333;-72
2022/07/10 05:04:23;;;;;;;9.40;8.60;;;17.90;99.90;;;;;;5024302;28;20249;-68
2022/07/10 05:06:48;;;;;;;10.60;9.70;;;17.90;99.90;;;;;;5023751;28;20191;-69
2022/07/10 05:09:14;;;;;;;9.70;8.73;;;18.00;99.90;;;;;;5024878;28;20525;-71
2022/07/10 05:11:39;;;;;;;8.37;7.60;;;18.10;99.90;;;;;;5024201;28;20179;-71
2022/07/10 05:14:05;;;;;;;7.87;7.17;;;18.10;99.90;;;;;;5024529;28;20514;-70
2022/07/10 05:16:30;;;;;;;8.20;7.40;;;17.90;99.90;;;;;;5024068;28;20279;-72
2022/07/10 05:18:56;;;;;;;7.40;6.80;;;17.80;99.90;;;;;;5024660;28;20656;-71
2022/07/10 05:21:22;;;;;;;7.30;6.77;;;17.70;99.90;;;;;;5024152;28;21059;-70
2022/07/10 05:23:47;;;;;;;6.70;6.17;;;17.70;99.90;;;;;;5024136;28;20700;-70
2022/07/10 05:26:13;;;;;;;6.13;5.63;;;17.60;99.90;;;;;;5024609;28;20584;-71
2022/07/10 05:28:39;;;;;;;6.27;5.30;;;17.60;99.90;;;;;;5024074;28;20499;-70
2022/07/10 05:31:04;;;;;;;7.57;5.63;;;17.60;99.90;;;;;;5023634;28;20210;-70
2022/07/10 05:33:30;;;;;;;7.40;5.63;;;17.50;99.90;;;;;;5023842;28;20202;-70
2022/07/10 05:35:56;;;;;;;5.80;5.30;;;17.30;99.90;;;;;;5023386;28;20233;-69
2022/07/10 05:38:22;;;;;;;6.10;5.50;;;17.50;99.90;;;;;;5023270;28;20226;-70
2022/07/10 05:40:48;;;;;;;5.90;5.27;;;17.70;99.90;;;;;;5023372;28;20186;-70
2022/07/10 05:43:14;;;;;;;6.23;4.77;;;17.90;99.90;;;;;;5023410;28;20457;-70
2022/07/10 05:45:40;;;;;;;7.03;5.27;;;18.20;99.90;;;;;;5023499;28;20795;-69
2022/07/10 05:48:05;;;;;;;4.77;3.90;;;18.10;99.90;;;;;;5023536;28;20239;-69
2022/07/10 05:50:31;;;;;;;4.83;4.33;;;18.10;99.90;;;;;;5023567;28;20920;-70
2022/07/10 05:52:57;;;;;;;4.70;3.43;;;17.90;99.90;;;;;;5022912;28;20182;-69
2022/07/10 05:55:23;;;;;;;3.90;3.60;;;17.90;99.90;;;;;;5023502;28;20409;-70
2022/07/10 05:57:50;;;;;;;5.57;4.20;;;18.00;99.90;;;;;;5023054;28;20210;-73
2022/07/10 06:00:16;;;;;;;4.10;3.43;;;18.10;99.90;;;;;;5023356;28;20414;-71
2022/07/10 06:02:41;;;;;;;4.50;4.10;;;18.30;99.90;;;;;;5023024;28;20755;-70
2022/07/10 06:05:07;;;;;;;5.43;3.30;;;18.30;99.90;;;;;;5023521;28;20745;-70
2022/07/10 06:07:34;;;;;;;4.60;2.73;;;18.10;99.90;;;;;;5023555;28;20253;-70
2022/07/10 06:10:00;;;;;;;2.90;2.70;;;17.70;99.90;;;;;;5023647;28;20413;-69
2022/07/10 06:12:25;;;;;;;5.30;4.03;;;17.80;99.90;;;;;;5023351;28;20973;-69
2022/07/10 06:14:51;;;;;;;3.50;2.70;;;17.90;99.90;;;;;;5023080;28;20414;-69
2022/07/10 06:17:17;;;;;;;5.40;3.00;;;17.90;99.90;;;;;;5023387;28;20274;-71
2022/07/10 06:19:42;;;;;;;3.60;2.90;;;17.90;99.90;;;;;;5027229;28;20229;-71
2022/07/10 06:24:52;;;;;;;4.87;3.73;;;17.90;99.90;;;;;;5027947;28;20282;-72
2022/07/10 06:27:17;;;;;;;3.47;3.17;;;17.90;99.90;;;;;;5027468;28;20512;-73
2022/07/10 06:29:43;;;;;;;5.23;3.73;;;18.00;99.90;;;;;;5027194;28;20461;-70
2022/07/10 06:32:09;;;;;;;3.80;3.00;;;18.30;99.90;;;;;;5026774;28;20266;-70
2022/07/10 06:34:35;;;;;;;5.07;3.63;;;18.10;99.90;;;;;;5027333;28;20531;-70
2022/07/10 06:37:00;;;;;;;3.77;3.03;;;18.10;99.90;;;;;;5026382;28;20210;-72
2022/07/10 06:39:26;;;;;;;6.90;3.47;;;18.10;99.90;;;;;;5027012;28;20266;-70
2022/07/10 06:41:52;;;;;;;5.97;3.40;;;18.00;99.90;;;;;;5026548;28;20672;-70
2022/07/10 06:44:17;;;;;;;2.90;2.70;;;17.80;99.90;;;;;;5027058;28;20245;-69
2022/07/10 06:47:55;;;;;;;3.30;3.00;;;17.80;99.90;;;;;;5026125;28;20585;-69
2022/07/10 06:49:29;;;;;;;5.13;2.93;;;17.90;99.90;;;;;;5026494;28;20198;-70
2022/07/10 06:51:54;;;;;;;3.87;3.07;;;18.00;99.90;;;;;;5026817;28;20901;-71
2022/07/10 06:54:20;;;;;;;5.00;3.60;;;17.80;99.90;;;;;;5026347;28;20187;-72
2022/07/10 06:56:45;;;;;;;3.50;2.60;;;17.70;99.90;;;;;;5026445;28;20226;-70
2022/07/10 06:59:11;;;;;;;3.30;2.40;;;17.80;99.90;;;;;;5025946;28;20372;-69
2022/07/10 07:01:36;;;;;;;2.80;2.43;;;17.80;99.90;;;;;;5026237;28;20176;-69
2022/07/10 07:04:02;;;;;;;4.10;2.53;;;18.10;99.90;;;;;;5026462;28;20579;-70
2022/07/10 07:06:28;;;;;;;4.93;2.90;;;18.30;99.90;;;;;;5026468;28;20331;-70
2022/07/10 07:08:53;;;;;;;4.43;2.90;;;18.40;99.90;;;;;;5026116;28;20636;-68
2022/07/10 07:11:19;;;;;;;2.40;2.20;;;18.30;99.90;;;;;;5026551;28;20179;-69
2022/07/10 07:13:44;;;;;;;3.40;2.97;;;18.10;99.90;;;;;;5025982;28;20186;-71
2022/07/10 07:16:11;;;;;;;5.77;2.80;;;18.00;99.90;;;;;;5026485;28;20179;-70
2022/07/10 07:18:47;;;;;;;4.40;3.07;;;18.20;99.90;;;;;;5025860;28;20937;-68
2022/07/10 07:23:57;;;;;;;4.83;2.47;;;18.30;99.90;;;;;;5025834;28;20413;-68
2022/07/10 07:26:22;;;;;;;3.97;3.17;;;18.20;99.90;;;;;;5026525;28;20442;-71
2022/07/10 07:28:48;;;;;;;5.00;3.10;;;18.00;99.90;;;;;;5025642;28;20183;-70
2022/07/10 07:31:17;;;;;;;3.10;2.70;;;18.20;99.90;;;;;;5026157;28;20269;-69
2022/07/10 07:33:43;;;;;;;3.70;2.53;;;18.40;99.90;;;;;;5025297;28;20220;-71
2022/07/10 07:36:08;;;;;;;3.17;2.57;;;18.40;99.90;;;;;;5025640;28;20521;-72
2022/07/10 07:38:34;;;;;;;4.70;2.43;;;18.60;99.90;;;;;;5025395;28;21513;-70
2022/07/10 07:41:00;;;;;;;3.00;2.50;;;18.50;99.90;;;;;;5026244;28;20183;-68
2022/07/10 07:43:26;;;;;;;3.40;2.63;;;18.70;99.90;;;;;;5025696;28;20195;-71
2022/07/10 07:45:52;;;;;;;2.83;2.23;;;18.70;99.90;;;;;;5025286;28;20418;-71
2022/07/10 07:48:17;;;;;;;3.47;2.63;;;18.80;99.90;;;;;;5025126;28;20568;-70
2022/07/10 07:50:43;;;;;;;5.23;2.60;;;18.80;99.90;;;;;;5025382;28;20687;-72
2022/07/10 07:53:08;;;;;;;3.23;2.93;;;18.50;99.90;;;;;;5025558;28;20644;-71
2022/07/10 07:55:34;;;;;;;6.63;2.70;;;18.60;99.90;;;;;;5025270;28;20201;-68
2022/07/10 07:58:00;;;;;;;3.67;2.43;;;18.60;99.90;;;;;;5025279;28;20215;-69
2022/07/10 08:00:28;;;;;;;2.43;2.23;;;18.60;99.90;;;;;;5025089;28;20182;-70
2022/07/10 08:02:55;;;;;;;2.97;2.27;;;18.70;99.90;;;;;;5024909;28;20221;-71
2022/07/10 08:05:23;;;;;;;3.33;2.10;;;19.00;99.90;;;;;;5025250;28;20429;-71
2022/07/10 08:07:57;;;;;;;3.07;2.27;;;19.30;99.90;;;;;;5024799;28;20812;-71
2022/07/10 08:10:25;;;;;;;2.77;2.10;;;19.30;99.90;;;;;;5025541;28;20956;-70
2022/07/10 08:12:51;;;;;;;3.50;2.47;;;19.30;99.90;;;;;;5025114;28;20825;-70
2022/07/10 08:15:18;;;;;;;6.23;2.30;;;19.20;99.90;;;;;;5024715;28;20552;-70
2022/07/10 08:17:48;;;;;;;2.47;2.17;;;19.30;99.90;;;;;;5023872;28;20214;-70
2022/07/10 08:20:14;;;;;;;3.47;2.30;;;19.10;99.90;;;;;;5006738;28;20433;-70
2022/07/10 08:22:42;;;;;;;4.90;2.40;;;19.00;99.90;;;;;;5024807;28;20450;-70
2022/07/10 08:25:09;;;;;;;3.00;2.30;;;18.80;99.90;;;;;;5024509;28;20167;-72
2022/07/10 08:27:35;;;;;;;4.50;2.60;;;18.80;99.90;;;;;;5024515;28;20552;-71
2022/07/10 08:30:01;;;;;;;2.77;2.07;;;18.70;99.90;;;;;;5024565;28;20525;-71
2022/07/10 08:32:27;;;;;;;3.07;2.03;;;18.80;99.90;;;;;;5024543;28;20587;-69
2022/07/10 08:34:53;;;;;;;2.87;2.10;;;18.90;99.90;;;;;;5024521;28;20178;-71
2022/07/10 08:37:19;;;;;;;4.70;2.30;;;18.80;99.90;;;;;;5024212;28;20434;-71
2022/07/10 08:39:45;;;;;;;3.43;2.07;;;18.90;99.90;;;;;;5023503;28;20168;-68
2022/07/10 08:42:11;;;;;;;2.83;2.10;;;18.70;99.90;;;;;;5024171;28;20446;-70
2022/07/10 08:44:37;;;;;;;3.80;2.00;;;18.90;99.90;;;;;;5024401;28;20409;-70
2022/07/10 08:47:04;;;;;;;7.93;2.50;;;19.30;99.90;;;;;;5023220;28;20679;-70
2022/07/10 08:49:31;;;;;;;3.50;2.20;;;19.30;99.90;;;;;;5024130;28;20870;-70
2022/07/10 08:52:03;;;;;;;4.50;2.50;;;19.10;99.90;;;;;;5024733;28;20500;-70
2022/07/10 08:54:29;;;;;;;3.90;2.23;;;19.10;99.90;;;;;;5023919;28;20463;-71
2022/07/10 08:57:00;;;;;;;4.10;2.10;;;19.20;99.90;;;;;;5024160;28;20525;-69
2022/07/10 08:59:26;;;;;;;5.13;2.07;;;19.00;99.90;;;;;;5024283;28;20416;-69
2022/07/10 09:01:53;;;;;;;3.67;2.40;;;19.10;99.90;;;;;;5023076;28;20543;-70
2022/07/10 09:04:20;;;;;;;4.43;2.13;;;19.60;99.90;;;;;;5023998;28;21453;-70
2022/07/10 09:06:46;;;;;;;4.50;1.93;;;19.70;99.90;;;;;;5023789;28;20483;-70
2022/07/10 09:09:12;;;;;;;3.33;2.03;;;19.40;99.90;;;;;;5023507;28;20413;-70
2022/07/10 09:11:42;;;;;;;5.07;2.40;;;19.60;99.90;;;;;;5023990;28;20418;-70
2022/07/10 09:14:11;;;;;;;3.60;2.10;;;19.60;99.90;;;;;;5024272;28;20171;-70
2022/07/10 09:16:38;;;;;;;3.97;1.93;;;19.50;99.90;;;;;;5024082;28;20433;-70
2022/07/10 09:19:27;;;;;;;6.07;2.17;;;19.50;99.90;;;;;;5024199;28;20414;-70
2022/07/10 09:21:54;;;;;;;3.13;1.60;;;19.60;99.90;;;;;;5024196;28;20476;-70
2022/07/10 09:24:20;;;;;;;3.17;2.40;;;19.70;99.90;;;;;;5023658;28;20457;-73
2022/07/10 09:27:03;;;;;;;3.23;1.90;;;19.60;99.90;;;;;;5023666;28;20445;-72
2022/07/10 09:29:30;;;;;;;4.70;2.10;;;19.70;99.90;;;;;;5023613;28;20498;-73
2022/07/10 09:31:58;;;;;;;2.77;1.93;;;19.70;99.90;;;;;;5023765;28;20483;-71
2022/07/10 09:34:36;;;;;;;3.90;1.77;;;19.50;99.90;;;;;;5023882;28;20414;-71
2022/07/10 09:37:41;;;;;;;3.00;1.77;;;19.80;99.90;;;;;;5023744;28;20507;-70
2022/07/10 09:40:08;;;;;;;2.50;1.97;;;20.10;99.90;;;;;;4962172;28;20428;-71
2022/07/10 09:42:42;;;;;;;4.23;2.00;;;20.10;99.90;;;;;;5013098;28;20698;-70
2022/07/10 09:45:15;;;;;;;1.73;1.40;;;20.00;99.90;;;;;;5023482;28;20914;-70
2022/07/10 09:47:44;;;;;;;2.80;1.80;;;19.80;99.90;;;;;;5023758;28;20430;-71
2022/07/10 09:50:29;;;;;;;4.00;1.63;;;19.60;99.90;;;;;;5023457;28;20659;-72
2022/07/10 09:52:58;;;;;;;2.80;1.60;;;19.50;99.90;;;;;;5023050;28;20769;-71
2022/07/10 09:55:35;;;;;;;2.10;1.87;;;19.80;99.90;;;;;;5023349;28;20417;-71
2022/07/10 09:58:03;;;;;;;2.97;2.07;;;20.10;99.90;;;;;;5023380;28;20589;-70
2022/07/10 10:00:31;;;;;;;2.40;1.80;;;20.50;99.90;;;;;;5023498;28;20466;-70
2022/07/10 10:02:59;;;;;;;2.10;1.60;;;20.80;99.30;;;;;;5023346;28;20456;-70
2022/07/10 10:05:39;;;;;;;2.43;1.50;;;20.60;99.70;;;;;;5023406;28;20405;-71
2022/07/10 10:08:19;;;;;;;2.43;2.20;;;20.50;99.90;;;;;;5023275;28;20430;-71
2022/07/10 10:10:49;;;;;;;2.90;1.73;;;20.60;99.60;;;;;;5023426;28;20401;-70
2022/07/10 10:13:30;;;;;;;2.80;1.80;;;20.30;99.30;;;;;;5023256;28;20472;-71
2022/07/10 10:15:56;;;;;;;3.77;1.90;;;20.40;99.70;;;;;;5023137;28;20422;-73
2022/07/10 10:18:26;;;;;;;2.63;1.53;;;20.70;99.00;;;;;;5023054;28;20418;-73
2022/07/10 10:20:53;;;;;;;4.93;1.80;;;20.60;99.00;;;;;;5023301;28;20410;-71
2022/07/10 10:23:21;;;;;;;4.70;2.10;;;20.50;99.30;;;;;;5023042;28;20540;-71
2022/07/10 10:25:49;;;;;;;2.53;1.80;;;20.40;99.40;;;;;;5023070;28;21073;-74
2022/07/10 10:28:16;;;;;;;3.27;2.17;;;20.40;99.40;;;;;;5022861;28;20826;-70
2022/07/10 10:30:44;;;;;;;3.23;2.00;;;20.50;99.40;;;;;;5023726;28;20834;-71
2022/07/10 10:33:32;;;;;;;3.00;1.97;;;20.40;99.00;;;;;;5023133;28;20410;-71
2022/07/10 10:35:59;;;;;;;2.10;1.60;;;20.60;99.20;;;;;;5023227;28;21553;-72
2022/07/10 10:38:24;;;;;;;3.03;1.93;;;20.90;99.00;;;;;;5022777;28;20500;-71
2022/07/10 10:40:50;;;;;;;4.60;2.20;;;21.00;99.20;;;;;;5023021;28;20501;-72
2022/07/10 10:43:21;;;;;;;2.87;2.03;;;21.10;97.80;;;;;;5022819;28;20196;-73
2022/07/10 10:45:47;;;;;;;3.10;2.30;;;20.90;97.80;;;;;;5023316;28;20282;-71
2022/07/10 10:48:15;;;;;;;2.93;1.83;;;21.00;97.40;;;;;;5004888;28;20572;-71
2022/07/10 10:50:41;;;;;;;4.40;2.07;;;20.90;97.30;;;;;;5023357;28;20781;-70
2022/07/10 10:53:28;;;;;;;1.73;1.60;;;20.90;96.90;;;;;;5022906;28;20784;-72
2022/07/10 10:55:59;;;;;;;4.07;1.77;;;21.00;97.10;;;;;;5022618;28;20541;-71
2022/07/10 10:58:26;;;;;;;2.57;1.80;;;21.10;97.10;;;;;;5022846;28;20496;-70
2022/07/10 11:00:52;;;;;;;3.20;1.90;;;21.10;96.60;;;;;;5023026;28;20422;-71
2022/07/10 11:03:20;;;;;;;2.00;1.80;;;21.10;96.90;;;;;;5023112;28;20480;-71
2022/07/10 11:05:47;;;;;;;5.33;2.13;;;20.70;98.00;;;;;;5026085;28;20500;-71
2022/07/10 11:08:14;;;;;;;4.50;2.20;;;20.90;97.90;;;;;;5026332;28;20469;-71
2022/07/10 11:10:46;;;;;;;2.80;2.00;;;21.20;97.40;;;;;;5026230;28;20410;-71
2022/07/10 11:13:13;;;;;;;2.90;2.20;;;21.10;97.30;;;;;;5026530;28;20402;-70
2022/07/10 11:15:42;;;;;;;2.67;2.00;;;21.10;96.90;;;;;;5025240;28;20560;-71
2022/07/10 11:18:09;;;;;;;3.20;1.77;;;21.30;96.60;;;;;;5026297;28;20430;-71
2022/07/10 11:20:38;;;;;;;3.00;1.87;;;21.70;95.80;;;;;;5026072;28;21551;-73
2022/07/10 11:23:25;;;;;;;3.07;2.00;;;22.10;95.00;;;;;;5026071;28;20456;-72
2022/07/10 11:26:12;;;;;;;3.30;1.40;;;22.10;95.30;;;;;;5026350;28;20406;-70
2022/07/10 11:28:43;;;;;;;2.00;1.80;;;21.90;94.50;;;;;;5026095;28;20455;-69
2022/07/10 11:31:09;;;;;;;3.67;1.57;;;22.10;94.40;;;;;;5025833;28;20457;-73
2022/07/10 11:33:49;;;;;;;1.90;1.80;;;22.20;93.20;;;;;;5025524;28;20414;-70
2022/07/10 11:36:16;;;;;;;1.60;1.50;;;22.90;93.40;;;;;;5025516;28;20182;-69
2022/07/10 11:38:44;;;;;;;3.07;1.70;;;23.50;92.70;;;;;;5024958;28;20422;-70
2022/07/10 11:41:17;;;;;;;2.17;1.20;;;22.90;92.60;;;;;;5025696;28;20422;-69
2022/07/10 11:43:51;;;;;;;1.90;1.23;;;22.60;92.20;;;;;;5007678;28;20449;-73
2022/07/10 11:46:18;;;;;;;1.97;1.30;;;21.80;92.90;;;;;;5025488;28;20441;-69
2022/07/10 11:48:45;;;;;;;1.67;1.23;;;21.60;92.70;;;;;;5025283;28;20665;-70
2022/07/10 11:51:39;;;;;;;2.00;1.40;;;21.40;92.60;;;;;;5025785;28;20414;-71
2022/07/10 11:54:13;;;;;;;2.40;1.53;;;21.50;93.40;;;;;;5023206;28;20440;-71
2022/07/10 11:56:47;;;;;;;2.50;1.60;;;21.60;93.10;;;;;;5025767;28;20460;-71
2022/07/10 11:59:14;;;;;;;2.13;1.33;;;21.60;93.00;;;;;;5025545;28;20786;-70
2022/07/10 12:01:47;;;;;;;1.77;1.30;;;22.00;93.10;;;;;;5025373;28;20414;-70
2022/07/10 12:04:15;;;;;;;5.03;1.63;;;22.90;91.60;;;;;;5025185;28;20460;-71
2022/07/10 12:06:43;;;;;;;1.40;1.30;;;23.70;90.10;;;;;;5025620;28;20803;-71
2022/07/10 12:09:20;;;;;;;5.53;1.60;;;25.00;86.50;;;;;;5025756;28;20410;-71
2022/07/10 12:12:06;;;;;;;2.30;1.20;;;24.90;85.40;;;;;;5026079;28;20420;-71
2022/07/10 12:14:32;;;;;;;1.77;1.20;;;26.00;83.20;;;;;;5025680;28;20413;-71
2022/07/10 12:16:59;;;;;;;2.37;1.20;;;25.10;81.30;;;;;;5025099;28;20440;-71
2022/07/10 12:19:27;;;;;;;2.60;1.40;;;24.10;84.40;;;;;;5007568;28;20425;-72
2022/07/10 12:21:53;;;;;;;1.87;1.00;;;24.50;83.40;;;;;;5025303;28;20483;-70
2022/07/10 12:24:20;;;;;;;1.90;1.20;;;24.80;78.50;;;;;;5025144;28;20905;-72
2022/07/10 12:26:47;;;;;;;2.50;1.23;;;25.00;80.80;;;;;;5024763;28;20537;-70
2022/07/10 12:29:27;;;;;;;2.90;1.17;;;25.80;76.70;;;;;;5025058;28;20516;-71
2022/07/10 12:31:55;;;;;;;2.33;1.20;;;27.80;68.30;;;;;;5025160;28;20410;-71
2022/07/10 12:34:36;;;;;;;2.90;1.27;;;28.20;66.10;;;;;;5025272;28;20497;-71
2022/07/10 12:37:09;;;;;;;1.87;1.40;;;27.50;66.90;;;;;;5025051;28;20496;-71
2022/07/10 12:39:38;;;;;;;3.83;1.57;;;28.20;64.00;;;;;;5025107;28;20414;-70
2022/07/10 12:42:05;;;;;;;2.60;1.10;;;27.60;61.60;;;;;;5024930;28;21522;-72
2022/07/10 12:44:42;;;;;;;1.70;1.20;;;27.20;64.50;;;;;;5023854;28;20464;-71
2022/07/10 12:47:19;;;;;;;1.83;1.17;;;27.70;62.50;;;;;;5025141;28;20977;-71
2022/07/10 12:49:52;;;;;;;1.80;1.17;;;27.70;62.40;;;;;;5026254;28;20767;-69
2022/07/10 12:52:23;;;;;;;1.63;0.90;;;26.60;63.90;;;;;;5025132;28;20425;-71
2022/07/10 12:55:04;;;;;;;2.90;1.00;;;25.50;67.50;;;;;;5025619;28;20410;-68